createdAt,value
2018-11-26T00:01:54.917Z,38.65
2018-11-26T00:04:22.204Z,35.85
2018-11-26T00:06:49.514Z,31.70
2018-11-26T00:09:16.783Z,37.05
2018-11-26T00:11:44.886Z,33.80
2018-11-26T00:14:12.147Z,32.13
2018-11-26T00:16:39.459Z,34.95
2018-11-26T00:19:06.766Z,31.80
2018-11-26T00:21:34.075Z,33.40
2018-11-26T00:24:01.348Z,30.30
2018-11-26T00:26:28.623Z,23.02
2018-11-26T00:28:55.899Z,27.85
2018-11-26T00:31:29.741Z,26.40
2018-11-26T00:33:56.985Z,35.00
2018-11-26T00:36:24.270Z,25.02
2018-11-26T00:38:51.545Z,27.55
2018-11-26T00:41:18.820Z,31.52
2018-11-26T00:43:46.106Z,26.25
2018-11-26T00:46:13.358Z,31.90
2018-11-26T00:48:40.666Z,24.90
2018-11-26T00:51:07.951Z,31.23
2018-11-26T00:53:35.218Z,33.92
2018-11-26T00:56:02.515Z,29.90
2018-11-26T00:58:29.817Z,29.60
2018-11-26T01:00:57.136Z,38.30
2018-11-26T01:03:24.504Z,24.00
2018-11-26T01:05:51.758Z,19.77
2018-11-26T01:08:19.066Z,22.90
2018-11-26T01:10:46.381Z,27.02
2018-11-26T01:13:13.646Z,24.67
2018-11-26T01:15:40.954Z,19.17
2018-11-26T01:18:08.249Z,24.40
2018-11-26T01:20:35.584Z,19.25
2018-11-26T01:23:02.939Z,21.23
2018-11-26T01:25:30.227Z,20.40
2018-11-26T01:27:57.553Z,20.60
2018-11-26T01:30:24.817Z,24.85
2018-11-26T01:32:52.099Z,18.17
2018-11-26T01:35:19.469Z,20.82
2018-11-26T01:37:46.758Z,16.10
2018-11-26T01:40:20.019Z,21.07
2018-11-26T01:42:47.532Z,20.12
2018-11-26T01:45:14.828Z,21.33
2018-11-26T01:47:42.108Z,16.82
2018-11-26T01:50:09.373Z,20.40
2018-11-26T01:52:36.675Z,20.50
2018-11-26T01:55:04.009Z,14.95
2018-11-26T01:57:32.019Z,17.65
2018-11-26T01:59:59.302Z,21.95
2018-11-26T02:02:26.577Z,23.18
2018-11-26T02:04:53.843Z,15.72
2018-11-26T02:07:21.105Z,19.70
2018-11-26T02:09:48.388Z,19.75
2018-11-26T02:12:15.675Z,18.20
2018-11-26T02:14:42.938Z,18.25
2018-11-26T02:17:10.243Z,15.50
2018-11-26T02:19:37.564Z,20.27
2018-11-26T02:22:04.837Z,14.40
2018-11-26T02:24:32.241Z,13.35
2018-11-26T02:26:59.535Z,15.83
2018-11-26T02:29:26.836Z,14.58
2018-11-26T02:31:54.181Z,14.13
2018-11-26T02:34:21.493Z,16.32
2018-11-26T02:36:48.814Z,13.08
2018-11-26T02:39:16.082Z,13.95
2018-11-26T02:41:43.367Z,14.53
2018-11-26T02:44:10.635Z,14.65
2018-11-26T02:46:37.924Z,12.82
2018-11-26T02:49:05.278Z,18.05
2018-11-26T02:51:32.534Z,14.80
2018-11-26T02:53:59.798Z,10.72
2018-11-26T02:56:27.078Z,11.80
2018-11-26T02:58:54.352Z,13.80
2018-11-26T03:01:21.611Z,16.02
2018-11-26T03:03:48.984Z,19.10
2018-11-26T03:06:16.290Z,10.75
2018-11-26T03:08:43.570Z,19.55
2018-11-26T03:11:10.856Z,12.37
2018-11-26T03:13:38.124Z,10.93
2018-11-26T03:16:05.866Z,13.85
2018-11-26T03:18:33.160Z,11.00
2018-11-26T03:21:00.444Z,17.73
2018-11-26T03:23:27.696Z,14.93
2018-11-26T03:25:54.988Z,18.87
2018-11-26T03:28:22.252Z,16.75
2018-11-26T03:30:49.514Z,23.45
2018-11-26T03:33:16.788Z,23.12
2018-11-26T03:35:44.067Z,24.67
2018-11-26T03:38:13.431Z,22.15
2018-11-26T03:40:40.846Z,22.02
2018-11-26T03:43:08.273Z,19.98
2018-11-26T03:45:35.614Z,34.75
2018-11-26T03:48:02.876Z,26.07
2018-11-26T03:50:30.162Z,24.37
2018-11-26T03:52:57.415Z,26.73
2018-11-26T03:55:24.711Z,29.05
2018-11-26T03:57:52.071Z,30.97
2018-11-26T04:00:19.387Z,33.05
2018-11-26T04:02:46.667Z,28.67
2018-11-26T04:05:13.936Z,25.60
2018-11-26T04:07:41.256Z,32.08
2018-11-26T04:10:09.609Z,34.33
2018-11-26T04:12:36.887Z,34.78
2018-11-26T04:15:04.927Z,29.57
2018-11-26T04:17:32.234Z,31.35
2018-11-26T04:19:59.529Z,24.63
2018-11-26T04:22:26.795Z,29.27
2018-11-26T04:24:54.073Z,28.62
2018-11-26T04:27:21.318Z,36.00
2018-11-26T04:29:48.583Z,32.03
2018-11-26T04:32:15.865Z,30.10
2018-11-26T04:34:43.175Z,26.10
2018-11-26T04:37:10.435Z,27.30
2018-11-26T04:39:37.711Z,27.20
2018-11-26T04:42:05.079Z,26.73
2018-11-26T04:44:32.373Z,33.30
2018-11-26T04:46:59.641Z,40.15
2018-11-26T04:49:33.713Z,24.35
2018-11-26T04:52:00.995Z,32.13
2018-11-26T04:54:28.297Z,30.30
2018-11-26T04:56:55.614Z,26.35
2018-11-26T04:59:22.914Z,33.55
2018-11-26T05:01:50.246Z,25.30
2018-11-26T05:04:17.540Z,29.30
2018-11-26T05:06:44.807Z,25.37
2018-11-26T05:09:12.079Z,24.70
2018-11-26T05:11:39.349Z,25.05
2018-11-26T05:14:06.682Z,27.25
2018-11-26T05:16:33.959Z,25.45
2018-11-26T05:19:01.265Z,31.87
2018-11-26T05:21:28.539Z,34.58
2018-11-26T05:23:55.805Z,28.55
2018-11-26T05:26:23.098Z,23.40
2018-11-26T05:28:50.376Z,38.88
2018-11-26T05:31:17.724Z,27.93
2018-11-26T05:33:45.067Z,25.30
2018-11-26T05:36:12.366Z,26.90
2018-11-26T05:38:39.636Z,22.37
2018-11-26T05:41:06.912Z,38.08
2018-11-26T05:43:34.201Z,30.43
2018-11-26T05:46:01.526Z,32.15
2018-11-26T05:48:28.804Z,31.62
2018-11-26T05:50:56.130Z,30.90
2018-11-26T05:53:23.391Z,25.15
2018-11-26T05:55:50.667Z,29.60
2018-11-26T05:58:18.025Z,20.23
2018-11-26T06:00:45.314Z,18.55
2018-11-26T06:03:12.746Z,18.85
2018-11-26T06:05:40.082Z,16.17
2018-11-26T06:08:07.396Z,14.53
2018-11-26T06:10:34.662Z,12.70
2018-11-26T06:13:03.065Z,15.00
2018-11-26T06:15:29.244Z,13.45
2018-11-26T06:17:56.500Z,9.53
2018-11-26T06:20:23.791Z,6.15
2018-11-26T06:22:51.124Z,5.80
2018-11-26T06:25:19.945Z,8.58
2018-11-26T06:27:47.288Z,4.25
2018-11-26T06:30:15.585Z,5.08
2018-11-26T06:32:43.080Z,4.33
2018-11-26T06:35:24.984Z,7.70
2018-11-26T06:37:52.251Z,6.40
2018-11-26T06:40:19.538Z,4.97
2018-11-26T06:42:46.845Z,4.12
2018-11-26T06:45:18.190Z,3.65
2018-11-26T06:47:45.479Z,3.60
2018-11-26T06:50:13.922Z,8.70
2018-11-26T06:52:41.259Z,7.17
2018-11-26T06:55:10.263Z,5.87
2018-11-26T06:57:37.561Z,4.17
2018-11-26T07:00:09.413Z,4.22
2018-11-26T07:02:43.390Z,5.70
2018-11-26T07:05:15.921Z,6.97
2018-11-26T07:07:43.314Z,7.75
2018-11-26T07:10:11.394Z,7.15
2018-11-26T07:12:38.674Z,6.10
2018-11-26T07:15:13.044Z,10.25
2018-11-26T07:17:40.487Z,8.38
2018-11-26T07:20:11.807Z,9.33
2018-11-26T07:22:39.111Z,7.40
2018-11-26T07:25:07.799Z,11.55
2018-11-26T07:27:35.067Z,6.75
2018-11-26T07:30:02.387Z,7.12
2018-11-26T07:32:29.679Z,13.25
2018-11-26T07:34:56.956Z,14.33
2018-11-26T07:37:24.254Z,13.25
2018-11-26T07:39:51.525Z,13.05
2018-11-26T07:42:18.796Z,10.98
2018-11-26T07:44:46.075Z,20.62
2018-11-26T07:47:13.354Z,10.08
2018-11-26T07:49:40.643Z,10.80
2018-11-26T07:52:07.926Z,7.37
2018-11-26T07:54:35.200Z,9.25
2018-11-26T07:57:02.512Z,12.98
2018-11-26T07:59:29.804Z,12.05
2018-11-26T08:01:57.073Z,11.70
2018-11-26T08:04:24.415Z,9.58
2018-11-26T08:06:51.768Z,9.73
2018-11-26T08:09:19.070Z,9.15
2018-11-26T08:11:46.366Z,9.33
2018-11-26T08:14:13.670Z,9.18
2018-11-26T08:16:40.942Z,11.10
2018-11-26T08:19:08.228Z,12.53
2018-11-26T08:21:35.515Z,14.33
2018-11-26T08:24:02.798Z,13.28
2018-11-26T08:26:30.108Z,13.30
2018-11-26T08:28:57.414Z,18.40
2018-11-26T08:31:24.729Z,26.80
2018-11-26T08:33:51.999Z,41.63
2018-11-26T08:36:24.876Z,24.47
2018-11-26T08:38:57.853Z,26.65
2018-11-26T08:41:30.987Z,47.58
2018-11-26T08:44:09.345Z,45.48
2018-11-26T08:46:31.152Z,11.25
2018-11-26T08:49:06.947Z,18.85
2018-11-26T08:51:34.634Z,8.43
2018-11-26T08:54:02.021Z,15.45
2018-11-26T08:56:29.403Z,9.18
2018-11-26T08:58:56.686Z,8.93
2018-11-26T09:01:29.510Z,7.67
2018-11-26T09:03:56.851Z,11.85
2018-11-26T09:06:24.281Z,17.90
2018-11-26T09:08:51.600Z,15.83
2018-11-26T09:11:18.900Z,9.30
2018-11-26T09:13:46.200Z,11.25
2018-11-26T09:16:13.481Z,11.85
2018-11-26T09:18:40.771Z,6.45
2018-11-26T09:21:08.170Z,8.78
2018-11-26T09:23:35.623Z,7.80
2018-11-26T09:26:03.013Z,5.15
2018-11-26T09:28:30.358Z,5.47
2018-11-26T09:30:57.689Z,7.80
2018-11-26T09:33:25.006Z,9.00
2018-11-26T09:35:52.316Z,7.17
2018-11-26T09:38:19.633Z,9.15
2018-11-26T09:40:47.041Z,7.90
2018-11-26T09:43:14.367Z,9.40
2018-11-26T09:45:41.747Z,11.53
2018-11-26T09:48:09.072Z,9.78
2018-11-26T09:50:36.400Z,8.05
2018-11-26T09:53:03.896Z,11.45
2018-11-26T09:55:31.210Z,12.68
2018-11-26T09:57:58.528Z,23.20
2018-11-26T10:00:25.808Z,13.60
2018-11-26T10:02:53.127Z,21.35
2018-11-26T10:05:22.705Z,7.75
2018-11-26T10:07:50.078Z,31.10
2018-11-26T10:10:17.391Z,22.20
2018-11-26T10:12:44.964Z,22.52
2018-11-26T10:15:16.226Z,28.70
2018-11-26T10:17:43.636Z,15.95
2018-11-26T10:20:11.300Z,23.38
2018-11-26T10:22:38.720Z,26.97
2018-11-26T10:25:09.762Z,9.18
2018-11-26T10:27:37.090Z,23.98
2018-11-26T10:30:07.152Z,14.80
2018-11-26T10:32:34.482Z,11.73
2018-11-26T10:35:01.819Z,7.92
2018-11-26T10:37:29.198Z,8.83
2018-11-26T10:39:56.496Z,6.92
2018-11-26T10:42:23.882Z,8.18
2018-11-26T10:44:51.312Z,7.40
2018-11-26T10:47:18.646Z,8.45
2018-11-26T10:49:45.930Z,5.87
2018-11-26T10:52:13.253Z,10.85
2018-11-26T10:54:40.590Z,6.40
2018-11-26T10:57:10.641Z,10.58
2018-11-26T10:59:38.758Z,7.55
2018-11-26T11:02:11.720Z,10.63
2018-11-26T11:04:39.032Z,7.05
2018-11-26T11:07:06.346Z,7.50
2018-11-26T11:09:33.699Z,9.48
2018-11-26T11:12:01.028Z,14.47
2018-11-26T11:14:28.361Z,8.30
2018-11-26T11:16:55.679Z,6.12
2018-11-26T11:19:22.978Z,8.00
2018-11-26T11:21:50.275Z,10.80
2018-11-26T11:24:17.865Z,5.12
2018-11-26T11:26:45.141Z,6.00
2018-11-26T11:29:12.448Z,8.18
2018-11-26T11:31:39.768Z,8.88
2018-11-26T11:34:07.093Z,8.00
2018-11-26T11:36:34.411Z,7.28
2018-11-26T11:39:01.778Z,5.78
2018-11-26T11:41:34.101Z,5.10
2018-11-26T11:43:56.476Z,4.92
2018-11-26T11:46:23.768Z,6.08
2018-11-26T11:48:51.068Z,10.53
2018-11-26T11:51:19.109Z,6.37
2018-11-26T11:53:45.729Z,5.17
2018-11-26T11:56:13.061Z,10.82
2018-11-26T11:58:40.406Z,8.48
2018-11-26T12:01:10.649Z,10.60
2018-11-26T12:03:35.250Z,20.68
2018-11-26T12:06:02.589Z,14.00
2018-11-26T12:08:29.927Z,10.25
2018-11-26T12:10:57.264Z,9.90
2018-11-26T12:13:24.577Z,14.05
2018-11-26T12:15:52.111Z,11.30
2018-11-26T12:18:19.497Z,7.30
2018-11-26T12:20:46.819Z,8.55
2018-11-26T12:23:14.359Z,10.05
2018-11-26T12:25:41.439Z,6.03
2018-11-26T12:28:08.769Z,5.85
2018-11-26T12:30:37.860Z,11.48
2018-11-26T12:33:05.467Z,12.13
2018-11-26T12:35:33.641Z,15.72
2018-11-26T12:38:00.999Z,16.23
2018-11-26T12:40:28.333Z,10.00
2018-11-26T12:42:56.734Z,13.72
2018-11-26T12:45:27.012Z,25.85
2018-11-26T12:47:54.322Z,8.95
2018-11-26T12:50:21.684Z,8.68
2018-11-26T12:52:49.066Z,8.13
2018-11-26T12:55:17.326Z,6.97
2018-11-26T12:57:45.381Z,7.67
2018-11-26T13:00:16.534Z,7.40
2018-11-26T13:02:45.959Z,7.95
2018-11-26T13:05:14.423Z,5.97
2018-11-26T13:07:41.728Z,9.30
2018-11-26T13:10:11.275Z,9.60
2018-11-26T13:12:38.577Z,11.50
2018-11-26T13:15:11.572Z,9.10
2018-11-26T13:17:38.955Z,10.05
2018-11-26T13:20:11.504Z,12.58
2018-11-26T13:22:38.847Z,13.45
2018-11-26T13:25:09.455Z,10.43
2018-11-26T13:27:37.115Z,11.22
2018-11-26T13:30:13.437Z,10.70
2018-11-26T13:32:40.738Z,12.43
2018-11-26T13:35:10.507Z,9.18
2018-11-26T13:37:37.837Z,12.45
2018-11-26T13:40:08.724Z,10.30
2018-11-26T13:42:36.095Z,9.68
2018-11-26T13:45:03.461Z,8.78
2018-11-26T13:47:30.791Z,10.68
2018-11-26T13:49:58.118Z,11.75
2018-11-26T13:52:25.459Z,8.00
2018-11-26T13:54:52.813Z,8.88
2018-11-26T13:57:20.121Z,17.77
2018-11-26T13:59:47.453Z,21.65
2018-11-26T14:02:19.156Z,34.85
2018-11-26T14:04:46.494Z,26.57
2018-11-26T14:07:13.877Z,19.57
2018-11-26T14:09:41.237Z,16.42
2018-11-26T14:12:08.619Z,16.52
2018-11-26T14:14:35.916Z,12.60
2018-11-26T14:17:03.251Z,23.95
2018-11-26T14:19:30.649Z,10.80
2018-11-26T14:21:58.107Z,15.32
2018-11-26T14:24:25.445Z,52.98
2018-11-26T14:26:52.788Z,26.75
2018-11-26T14:29:20.080Z,18.17
2018-11-26T14:31:47.406Z,10.03
2018-11-26T14:34:14.721Z,12.05
2018-11-26T14:36:42.003Z,14.38
2018-11-26T14:39:10.176Z,15.32
2018-11-26T14:41:38.957Z,11.10
2018-11-26T14:44:06.560Z,14.40
2018-11-26T14:46:34.159Z,14.13
2018-11-26T14:49:01.597Z,11.28
2018-11-26T14:51:28.955Z,15.13
2018-11-26T14:53:56.279Z,18.67
2018-11-26T14:56:23.597Z,14.85
2018-11-26T14:58:51.104Z,12.03
2018-11-26T15:01:18.795Z,13.43
2018-11-26T15:03:46.132Z,12.47
2018-11-26T15:06:16.379Z,8.73
2018-11-26T15:08:43.727Z,10.15
2018-11-26T15:11:11.272Z,13.30
2018-11-26T15:13:38.718Z,10.05
2018-11-26T15:16:06.065Z,13.22
2018-11-26T15:18:33.413Z,22.60
2018-11-26T15:21:00.748Z,18.80
2018-11-26T15:23:28.175Z,15.15
2018-11-26T15:25:55.628Z,9.15
2018-11-26T15:28:22.951Z,9.48
2018-11-26T15:30:50.313Z,7.12
2018-11-26T15:33:17.707Z,9.78
2018-11-26T15:35:45.049Z,10.95
2018-11-26T15:38:12.411Z,7.90
2018-11-26T15:40:39.793Z,9.28
2018-11-26T15:43:07.358Z,12.20
2018-11-26T15:45:35.223Z,10.38
2018-11-26T15:48:05.202Z,25.82
2018-11-26T15:50:32.715Z,38.30
2018-11-26T15:53:06.646Z,111.50
2018-11-26T15:55:34.007Z,29.02
2018-11-26T15:58:01.415Z,33.38
2018-11-26T16:00:28.733Z,21.93
2018-11-26T16:02:56.072Z,21.95
2018-11-26T16:05:26.536Z,16.48
2018-11-26T16:07:56.010Z,18.42
2018-11-26T16:10:25.794Z,18.10
2018-11-26T16:12:54.630Z,21.05
2018-11-26T16:15:23.477Z,10.28
2018-11-26T16:17:51.228Z,11.40
2018-11-26T16:20:21.985Z,7.72
2018-11-26T16:22:49.417Z,11.00
2018-11-26T16:25:18.383Z,14.03
2018-11-26T16:27:45.771Z,23.95
2018-11-26T16:30:14.335Z,20.25
2018-11-26T16:32:43.006Z,10.75
2018-11-26T16:35:13.634Z,11.60
2018-11-26T16:37:41.015Z,9.75
2018-11-26T16:40:11.953Z,12.23
2018-11-26T16:42:39.466Z,10.60
2018-11-26T16:45:12.770Z,10.25
2018-11-26T16:47:40.270Z,9.13
2018-11-26T16:50:10.210Z,29.37
2018-11-26T16:52:37.743Z,13.90
2018-11-26T16:55:07.598Z,13.03
2018-11-26T16:57:35.062Z,14.25
2018-11-26T17:00:02.576Z,13.93
2018-11-26T17:02:29.953Z,16.62
2018-11-26T17:04:57.342Z,16.65
2018-11-26T17:07:24.772Z,22.22
2018-11-26T17:09:52.229Z,24.87
2018-11-26T17:12:19.634Z,24.40
2018-11-26T17:14:47.070Z,20.75
2018-11-26T17:17:14.609Z,14.33
2018-11-26T17:19:45.679Z,17.57
2018-11-26T17:22:10.331Z,19.75
2018-11-26T17:24:37.899Z,22.15
2018-11-26T17:27:05.531Z,23.73
2018-11-26T17:29:32.923Z,18.95
2018-11-26T17:32:07.462Z,16.93
2018-11-26T17:34:34.840Z,14.85
2018-11-26T17:37:02.239Z,13.58
2018-11-26T17:39:29.704Z,16.32
2018-11-26T17:41:57.084Z,12.65
2018-11-26T17:44:24.448Z,14.55
2018-11-26T17:46:52.511Z,15.15
2018-11-26T17:49:19.907Z,11.45
2018-11-26T17:51:47.409Z,13.28
2018-11-26T17:54:14.830Z,9.95
2018-11-26T17:56:42.232Z,11.68
2018-11-26T17:59:09.672Z,10.80
2018-11-26T18:01:40.075Z,15.13
2018-11-26T18:04:08.654Z,11.25
2018-11-26T18:06:36.058Z,17.27
2018-11-26T18:09:04.122Z,17.95
2018-11-26T18:11:32.097Z,16.55
2018-11-26T18:13:59.499Z,15.60
2018-11-26T18:16:27.079Z,12.95
2018-11-26T18:18:54.601Z,14.15
2018-11-26T18:21:22.054Z,15.65
2018-11-26T18:23:49.432Z,16.93
2018-11-26T18:26:16.899Z,13.75
2018-11-26T18:28:44.329Z,16.45
2018-11-26T18:31:11.747Z,14.78
2018-11-26T18:33:39.207Z,16.50
2018-11-26T18:36:07.062Z,22.95
2018-11-26T18:38:34.554Z,17.98
2018-11-26T18:41:01.980Z,14.15
2018-11-26T18:43:30.292Z,14.95
2018-11-26T18:45:57.757Z,18.57
2018-11-26T18:48:26.292Z,18.40
2018-11-26T18:50:53.875Z,15.75
2018-11-26T18:53:21.337Z,16.42
2018-11-26T18:55:48.878Z,20.27
2018-11-26T18:58:17.107Z,18.20
2018-11-26T19:00:46.955Z,14.63
2018-11-26T19:03:18.968Z,18.00
2018-11-26T19:05:47.170Z,15.03
2018-11-26T19:08:14.605Z,17.15
2018-11-26T19:10:42.681Z,14.70
2018-11-26T19:13:14.549Z,16.32
2018-11-26T19:15:43.673Z,13.83
2018-11-26T19:18:17.733Z,15.32
2018-11-26T19:20:45.153Z,14.07
2018-11-26T19:23:12.914Z,19.12
2018-11-26T19:25:40.295Z,16.00
2018-11-26T19:28:07.958Z,32.33
2018-11-26T19:30:35.605Z,15.20
2018-11-26T19:33:03.219Z,14.80
2018-11-26T19:35:30.920Z,14.45
2018-11-26T19:37:58.541Z,13.93
2018-11-26T19:40:26.647Z,11.25
2018-11-26T19:42:55.139Z,13.43
2018-11-26T19:45:22.655Z,11.25
2018-11-26T19:47:51.803Z,10.35
2018-11-26T19:50:19.833Z,11.63
2018-11-26T19:52:49.630Z,13.80
2018-11-26T19:55:19.401Z,16.42
2018-11-26T19:57:47.196Z,13.95
2018-11-26T20:00:20.513Z,12.33
2018-11-26T20:02:50.084Z,11.63
2018-11-26T20:05:27.567Z,16.07
2018-11-26T20:07:55.084Z,18.17
2018-11-26T20:10:22.702Z,13.95
2018-11-26T20:12:50.854Z,13.15
2018-11-26T20:15:18.565Z,16.77
2018-11-26T20:17:46.295Z,13.83
2018-11-26T20:20:14.127Z,11.85
2018-11-26T20:22:42.689Z,12.90
2018-11-26T20:25:11.845Z,15.13
2018-11-26T20:27:39.491Z,10.58
2018-11-26T20:30:09.936Z,10.70
2018-11-26T20:32:37.328Z,12.03
2018-11-26T20:35:06.211Z,13.13
2018-11-26T20:37:33.611Z,19.85
2018-11-26T20:40:01.031Z,17.23
2018-11-26T20:42:28.985Z,15.23
2018-11-26T20:44:56.402Z,16.60
2018-11-26T20:47:24.405Z,13.80
2018-11-26T20:49:51.856Z,16.15
2018-11-26T20:52:19.281Z,16.97
2018-11-26T20:54:46.688Z,16.60
2018-11-26T20:57:14.823Z,15.15
2018-11-26T20:59:42.227Z,20.62
2018-11-26T21:02:09.656Z,19.23
2018-11-26T21:04:37.530Z,19.27
2018-11-26T21:07:05.498Z,16.55
2018-11-26T21:09:33.028Z,19.15
2018-11-26T21:12:00.442Z,14.87
2018-11-26T21:14:27.869Z,14.25
2018-11-26T21:16:56.012Z,13.08
2018-11-26T21:19:23.471Z,17.60
2018-11-26T21:21:50.875Z,13.93
2018-11-26T21:24:21.081Z,12.25
2018-11-26T21:26:48.661Z,10.03
2018-11-26T21:29:16.100Z,17.60
2018-11-26T21:31:43.588Z,21.00
2018-11-26T21:34:11.179Z,22.58
2018-11-26T21:36:38.590Z,13.55
2018-11-26T21:39:08.979Z,12.00
2018-11-26T21:41:36.540Z,13.22
2018-11-26T21:44:04.131Z,14.15
2018-11-26T21:46:31.535Z,14.47
2018-11-26T21:48:58.946Z,14.25
2018-11-26T21:51:26.375Z,13.55
2018-11-26T21:53:53.816Z,15.68
2018-11-26T21:56:21.217Z,13.85
2018-11-26T21:58:48.656Z,14.15
2018-11-26T22:01:16.169Z,21.68
2018-11-26T22:03:43.536Z,16.87
2018-11-26T22:06:10.917Z,18.25
2018-11-26T22:08:38.286Z,18.35
2018-11-26T22:11:05.718Z,15.88
2018-11-26T22:13:33.168Z,15.50
2018-11-26T22:18:34.690Z,22.48
2018-11-26T22:21:02.092Z,21.85
2018-11-26T22:23:29.457Z,22.07
2018-11-26T22:25:56.817Z,22.13
2018-11-26T22:28:24.183Z,21.05
2018-11-26T22:30:51.551Z,28.83
2018-11-26T22:33:18.949Z,24.12
2018-11-26T22:35:46.333Z,22.25
2018-11-26T22:38:13.817Z,18.50
2018-11-26T22:40:41.682Z,21.42
2018-11-26T22:43:09.523Z,22.62
2018-11-26T22:45:36.932Z,18.62
2018-11-26T22:48:09.048Z,20.60
2018-11-26T22:50:37.405Z,19.37
2018-11-26T22:53:05.689Z,19.23
2018-11-26T22:55:32.992Z,22.02
2018-11-26T22:58:00.309Z,17.40
2018-11-26T23:00:34.685Z,27.65
2018-11-26T23:03:02.008Z,19.82
2018-11-26T23:05:29.336Z,23.95
2018-11-26T23:07:56.684Z,23.50
2018-11-26T23:10:24.019Z,26.57
2018-11-26T23:12:51.326Z,25.57
2018-11-26T23:15:18.841Z,33.70
2018-11-26T23:17:46.662Z,24.90
2018-11-26T23:20:14.911Z,26.42
2018-11-26T23:22:42.280Z,19.57
2018-11-26T23:25:10.689Z,20.23
2018-11-26T23:27:38.412Z,16.73
2018-11-26T23:30:11.495Z,24.32
2018-11-26T23:32:39.000Z,20.23
2018-11-26T23:35:06.348Z,21.77
2018-11-26T23:37:33.649Z,21.20
2018-11-26T23:40:00.963Z,23.20
2018-11-26T23:42:28.292Z,19.55
2018-11-26T23:44:55.620Z,21.35
2018-11-26T23:47:22.916Z,18.20
2018-11-26T23:52:24.560Z,25.43
2018-11-26T23:54:51.864Z,23.35
2018-11-26T23:57:19.197Z,13.22
2018-11-26T23:59:46.827Z,15.38
